Time;durP1;ratioP1;P1;durP2;ratioP2;P2;SDS_P1;SDS_P2;PMS_P1;PMS_P2;Temp;Humidity;BMP_temperature;BMP_pressure;BME280_temperature;BME280_humidity;BME280_pressure;Samples;Min_cycle;Max_cycle;Signal;HPM_P1;HPM_P2
2023/09/09 00:00:09;;;;;;;;;23.50;21.50;;;;;20.50;100.00;99214.75;6269008;27;96718;-67
2023/09/09 00:03:15;;;;;;;;;21.20;19.80;;;;;20.50;100.00;99212.00;6266689;27;96926;-67
2023/09/09 00:06:18;;;;;;;;;25.25;23.25;;;;;20.47;100.00;99204.34;6249749;27;96733;-67
2023/09/09 00:09:22;;;;;;;;;22.00;21.00;;;;;20.39;100.00;99210.38;6263257;27;96500;-67
2023/09/09 00:12:26;;;;;;;;;25.00;23.00;;;;;20.35;100.00;99218.34;6287091;27;96363;-67
2023/09/09 00:15:30;;;;;;;;;24.20;20.80;;;;;20.35;100.00;99206.56;6286954;27;96410;-67
2023/09/09 00:18:34;;;;;;;;;25.00;23.40;;;;;20.33;100.00;99217.78;6268729;27;96580;-67
2023/09/09 00:21:38;;;;;;;;;24.00;21.60;;;;;20.27;100.00;99211.50;6286811;27;97047;-67
2023/09/09 00:24:41;;;;;;;;;29.00;26.00;;;;;20.30;100.00;99200.00;6267409;27;96842;-67
2023/09/09 00:27:45;;;;;;;;;25.40;22.40;;;;;20.29;100.00;99192.03;6285878;27;96397;-67
2023/09/09 00:30:48;;;;;;;;;25.20;22.00;;;;;20.28;100.00;99204.09;6286443;27;96364;-67
2023/09/09 00:33:53;;;;;;;;;25.00;22.80;;;;;20.24;100.00;99195.59;6250811;27;96747;-67
2023/09/09 00:36:56;;;;;;;;;26.50;23.00;;;;;20.19;100.00;99186.56;6251541;27;96768;-67
2023/09/09 00:39:59;;;;;;;;;27.00;26.00;;;;;20.15;100.00;99194.53;6272430;27;96375;-67
2023/09/09 00:43:04;;;;;;;;;26.00;23.00;;;;;20.13;100.00;99198.66;6290733;27;96363;-67
2023/09/09 00:46:08;;;;;;;;;22.60;20.60;;;;;20.11;100.00;99207.13;6245274;27;96783;-67
2023/09/09 00:49:12;;;;;;;;;28.60;26.00;;;;;20.09;100.00;99203.84;6262885;27;96452;-67
2023/09/09 00:52:15;;;;;;;;;27.00;24.00;;;;;20.05;100.00;99199.19;6244162;27;99804;-67
2023/09/09 00:55:19;;;;;;;;;23.00;22.40;;;;;20.06;100.00;99192.63;6262905;27;96366;-67
2023/09/09 00:58:23;;;;;;;;;23.40;22.40;;;;;20.03;100.00;99194.00;6260984;27;98479;-67
2023/09/09 01:01:27;;;;;;;;;25.80;22.40;;;;;20.00;100.00;99200.03;6262020;27;96658;-67
2023/09/09 01:04:31;;;;;;;;;25.75;23.00;;;;;19.90;100.00;99189.91;6252619;27;96478;-67
2023/09/09 01:07:52;;;;;;;;;26.00;23.40;;;;;19.87;100.00;99197.84;6269850;27;96519;-67
2023/09/09 01:10:56;;;;;;;;;24.50;22.50;;;;;19.82;100.00;99204.16;6272007;27;96643;-67
2023/09/09 01:14:02;;;;;;;;;25.40;23.40;;;;;19.76;100.00;99202.50;6290332;27;97266;-67
2023/09/09 01:17:06;;;;;;;;;24.00;21.75;;;;;19.71;100.00;99197.03;6289988;27;96442;-66
2023/09/09 01:20:13;;;;;;;;;22.00;21.00;;;;;19.68;100.00;99202.22;6290167;27;96426;-67
2023/09/09 01:23:18;;;;;;;;;26.00;23.00;;;;;19.61;100.00;99209.88;6271694;27;96971;-67
2023/09/09 01:26:21;;;;;;;;;24.00;21.00;;;;;19.59;100.00;99207.44;6270791;27;99056;-67
2023/09/09 01:29:25;;;;;;;;;23.75;21.75;;;;;19.59;100.00;99207.44;6271502;27;96986;-69
2023/09/09 01:32:28;;;;;;;;;25.00;22.00;;;;;19.61;100.00;99210.69;6271436;27;97039;-67
2023/09/09 01:35:33;;;;;;;;;24.00;23.00;;;;;19.62;100.00;99208.78;6271227;27;97354;-67
2023/09/09 01:38:38;;;;;;;;;25.25;24.00;;;;;19.58;100.00;99205.78;6271892;27;96398;-67
2023/09/09 01:41:41;;;;;;;;;27.00;24.40;;;;;19.57;100.00;99206.03;6271028;27;96548;-67
2023/09/09 01:44:46;;;;;;;;;24.60;23.40;;;;;19.56;100.00;99198.94;6271352;27;97379;-67
2023/09/09 01:47:49;;;;;;;;;26.00;21.50;;;;;19.55;100.00;99200.84;6255124;27;96869;-67
2023/09/09 01:50:53;;;;;;;;;23.60;22.60;;;;;19.40;100.00;99173.47;6269965;27;96522;-67
2023/09/09 01:53:57;;;;;;;;;25.00;24.00;;;;;19.53;100.00;99199.50;6247471;27;96359;-67
2023/09/09 01:57:01;;;;;;;;;25.00;23.40;;;;;19.49;100.00;99191.00;6257268;27;97505;-67
2023/09/09 02:00:10;;;;;;;;;23.40;22.00;;;;;19.50;100.00;99197.31;6262522;27;96906;-67
2023/09/09 02:03:15;;;;;;;;;23.00;21.80;;;;;19.48;100.00;99186.63;6263764;27;96353;-67
2023/09/09 02:06:19;;;;;;;;;22.80;20.60;;;;;19.44;100.00;99196.47;6246145;27;96892;-67
2023/09/09 02:09:24;;;;;;;;;24.00;22.00;;;;;19.43;100.00;99197.53;6245611;27;96705;-67
2023/09/09 02:12:28;;;;;;;;;20.80;19.40;;;;;19.41;100.00;99200.53;6263599;27;96170;-67
2023/09/09 02:15:31;;;;;;;;;22.00;21.00;;;;;19.41;100.00;99195.06;6245482;27;96438;-67
2023/09/09 02:18:37;;;;;;;;;21.00;20.00;;;;;19.42;100.00;99190.41;6263925;27;96401;-67
2023/09/09 02:21:40;;;;;;;;;23.40;22.60;;;;;19.42;100.00;99195.88;6263577;27;96712;-67
2023/09/09 02:24:45;;;;;;;;;23.20;22.20;;;;;19.39;100.00;99199.19;6245264;27;97603;-67
2023/09/09 02:27:48;;;;;;;;;24.00;22.00;;;;;19.39;100.00;99201.91;6264395;27;96890;-67
2023/09/09 02:30:51;;;;;;;;;25.50;20.75;;;;;19.34;100.00;99200.00;6244410;27;97160;-67
2023/09/09 02:33:55;;;;;;;;;22.00;21.20;;;;;19.28;100.00;99209.25;6261388;27;96715;-67
2023/09/09 02:37:17;;;;;;;;;21.75;21.00;;;;;19.24;100.00;99208.16;6262994;27;96577;-67
2023/09/09 02:40:22;;;;;;;;;23.25;22.25;;;;;19.24;100.00;99208.16;6228315;27;98638;-67
2023/09/09 02:43:25;;;;;;;;;24.00;23.00;;;;;19.23;100.00;99195.59;6227534;27;97559;-67
2023/09/09 02:46:28;;;;;;;;;23.00;22.00;;;;;19.24;100.00;99199.97;6262572;27;98432;-67
2023/09/09 02:49:31;;;;;;;;;25.80;25.00;;;;;19.22;100.00;99199.41;6269173;27;96423;-67
2023/09/09 02:52:35;;;;;;;;;23.00;21.20;;;;;19.20;100.00;99201.59;6244228;27;96928;-67
2023/09/09 02:55:39;;;;;;;;;26.00;24.00;;;;;19.19;100.00;99204.59;6242624;27;97638;-67
2023/09/09 02:58:42;;;;;;;;;25.00;22.00;;;;;19.19;100.00;99204.59;6242528;27;96720;-66
2023/09/09 03:01:46;;;;;;;;;24.75;23.00;;;;;19.18;100.00;99200.22;6241799;27;96569;-67
2023/09/09 03:04:49;;;;;;;;;25.00;23.40;;;;;19.12;100.00;99196.66;6225285;27;96655;-67
2023/09/09 03:07:52;;;;;;;;;24.75;22.75;;;;;19.10;100.00;99200.75;6242206;27;97205;-67
2023/09/09 03:10:57;;;;;;;;;22.60;22.00;;;;;19.07;100.00;99207.56;6242107;27;97066;-67
2023/09/09 03:14:01;;;;;;;;;22.20;21.20;;;;;19.09;100.00;99199.94;6242130;27;96521;-67
2023/09/09 03:17:04;;;;;;;;;25.60;23.00;;;;;19.11;100.00;99199.66;6243973;27;96390;-67
2023/09/09 03:20:09;;;;;;;;;25.50;24.00;;;;;19.11;100.00;99207.88;6244105;27;96731;-67
2023/09/09 03:23:13;;;;;;;;;25.80;24.00;;;;;19.09;100.00;99199.09;6262379;27;96852;-67
2023/09/09 03:26:19;;;;;;;;;23.50;22.00;;;;;19.04;100.00;99202.66;6243678;27;96318;-67
2023/09/09 03:29:22;;;;;;;;;21.20;20.80;;;;;18.94;100.00;99189.78;6227678;27;96775;-67
2023/09/09 03:32:27;;;;;;;;;24.00;22.00;;;;;19.02;100.00;99202.91;6243469;27;97215;-67
2023/09/09 03:35:30;;;;;;;;;26.00;23.60;;;;;18.99;100.00;99199.91;6243715;27;96519;-67
2023/09/09 03:38:33;;;;;;;;;24.40;22.40;;;;;18.97;100.00;99202.06;6260859;27;96224;-67
2023/09/09 03:41:39;;;;;;;;;22.80;21.00;;;;;18.93;100.00;99203.69;6267345;27;96383;-67
2023/09/09 03:44:42;;;;;;;;;22.20;21.00;;;;;18.60;100.00;99155.78;6250722;27;96689;-67
2023/09/09 03:47:46;;;;;;;;;21.40;19.00;;;;;18.90;100.00;99199.59;6251139;27;98546;-67
2023/09/09 03:50:49;;;;;;;;;25.00;23.50;;;;;18.91;100.00;99208.63;6268782;27;96381;-67
2023/09/09 03:53:53;;;;;;;;;21.00;20.00;;;;;18.89;100.00;99208.88;6268481;27;96252;-67
2023/09/09 03:56:57;;;;;;;;;24.60;21.00;;;;;18.87;100.00;99213.78;6269197;27;96312;-67
2023/09/09 04:00:01;;;;;;;;;26.00;25.00;;;;;18.86;100.00;99214.06;6259408;27;96543;-67
2023/09/09 04:03:14;;;;;;;;;22.60;21.60;;;;;18.85;100.00;99212.41;6260170;27;96868;-67
2023/09/09 04:06:19;;;;;;;;;25.00;24.00;;;;;18.80;100.00;99215.97;6226995;27;98381;-67
2023/09/09 04:09:26;;;;;;;;;25.20;22.80;;;;;18.78;100.00;99220.84;6243307;27;96478;-67
2023/09/09 04:12:32;;;;;;;;;23.50;23.00;;;;;18.79;100.00;99216.22;6245204;27;96425;-67
2023/09/09 04:15:35;;;;;;;;;22.00;20.00;;;;;18.79;100.00;99213.47;6285137;27;96436;-67
2023/09/09 04:18:38;;;;;;;;;23.50;23.00;;;;;18.76;100.00;99214.84;6272250;27;96814;-67
2023/09/09 04:21:51;;;;;;;;;27.80;25.40;;;;;18.79;100.00;99214.31;6272976;27;97451;-67
2023/09/09 04:24:55;;;;;;;;;24.20;23.80;;;;;18.81;100.00;99220.34;6272884;27;97562;-67
2023/09/09 04:28:00;;;;;;;;;24.60;24.00;;;;;18.83;100.00;99212.69;6251096;27;96479;-67
2023/09/09 04:31:04;;;;;;;;;25.40;23.00;;;;;18.86;100.00;99214.88;6247462;27;96440;-67
2023/09/09 04:34:11;;;;;;;;;26.60;23.60;;;;;18.91;100.00;99220.34;6257645;27;96366;-67
2023/09/09 04:37:16;;;;;;;;;26.80;25.00;;;;;18.97;100.00;99215.72;6265365;27;96844;-67
2023/09/09 04:40:20;;;;;;;;;27.60;25.00;;;;;19.01;100.00;99217.66;6263122;27;97248;-67
2023/09/09 04:43:24;;;;;;;;;28.00;26.20;;;;;19.07;100.00;99217.66;6276335;27;98427;-67
2023/09/09 04:46:28;;;;;;;;;24.00;21.60;;;;;19.10;100.00;99219.88;6242968;27;96674;-67
2023/09/09 04:49:31;;;;;;;;;25.00;22.80;;;;;19.15;100.00;99231.66;6262925;27;96369;-67
2023/09/09 04:52:34;;;;;;;;;26.20;23.20;;;;;19.26;100.00;99227.00;6252961;27;98400;-67
2023/09/09 04:55:37;;;;;;;;;29.00;27.00;;;;;19.35;100.00;99225.41;6257056;27;96324;-67
2023/09/09 04:58:43;;;;;;;;;26.00;25.40;;;;;19.39;100.00;99221.88;6264067;27;96772;-66
2023/09/09 05:01:46;;;;;;;;;26.00;24.00;;;;;19.56;100.00;99220.81;6256565;27;97301;-66
2023/09/09 05:04:50;;;;;;;;;27.20;24.00;;;;;19.66;100.00;99234.50;6241814;27;96883;-66
2023/09/09 05:07:53;;;;;;;;;24.75;23.25;;;;;19.80;100.00;99228.22;6255741;27;97491;-66
2023/09/09 05:10:57;;;;;;;;;37.00;32.80;;;;;19.93;100.00;99226.88;6276907;27;97220;-66
2023/09/09 05:14:02;;;;;;;;;39.80;34.00;;;;;20.00;100.00;99235.59;6251792;27;96969;-66
2023/09/09 05:17:06;;;;;;;;;32.00;29.60;;;;;20.10;100.00;99232.03;6271436;27;96885;-66
2023/09/09 05:20:11;;;;;;;;;28.60;27.60;;;;;20.18;100.00;99231.50;6271693;27;96479;-66
2023/09/09 05:23:15;;;;;;;;;29.67;27.67;;;;;20.30;100.00;99232.00;6271886;27;96388;-67
2023/09/09 05:26:18;;;;;;;;;31.00;27.40;;;;;20.45;100.00;99240.22;6271447;27;96385;-67
2023/09/09 05:29:22;;;;;;;;;26.00;25.00;;;;;20.62;100.00;99231.69;6265527;27;96390;-67
2023/09/09 05:32:26;;;;;;;;;33.50;29.50;;;;;20.84;100.00;99236.81;6256788;27;97566;-67
2023/09/09 05:35:29;;;;;;;;;36.00;32.00;;;;;20.97;100.00;99234.28;6256886;27;96750;-66
2023/09/09 05:38:33;;;;;;;;;32.40;28.80;;;;;21.12;100.00;99234.22;6267855;27;96550;-67
2023/09/09 05:41:36;;;;;;;;;32.80;30.00;;;;;21.21;100.00;99242.69;6263793;27;98468;-66
2023/09/09 05:44:40;;;;;;;;;31.40;28.00;;;;;21.25;100.00;99238.31;6245409;27;97327;-67
2023/09/09 05:47:44;;;;;;;;;31.80;28.60;;;;;21.40;100.00;99246.47;6246003;27;98395;-67
2023/09/09 05:50:48;;;;;;;;;27.60;25.60;;;;;21.50;100.00;99240.88;6268564;27;98177;-66
2023/09/09 05:53:52;;;;;;;;;30.00;28.00;;;;;21.72;100.00;99250.63;6257960;27;96834;-67
2023/09/09 05:56:56;;;;;;;;;32.40;29.80;;;;;21.95;100.00;99253.47;6270921;27;96517;-67
2023/09/09 06:00:02;;;;;;;;;31.00;29.00;;;;;22.24;100.00;99256.25;6264460;27;97396;-67
2023/09/09 06:03:15;;;;;;;;;32.00;30.00;;;;;22.43;100.00;99251.66;6268739;27;97865;-67
2023/09/09 06:06:19;;;;;;;;;34.00;31.00;;;;;22.61;100.00;99255.63;6288577;27;96489;-66
2023/09/09 06:09:22;;;;;;;;;35.25;31.50;;;;;22.76;100.00;99260.97;6283384;27;96286;-67
2023/09/09 06:12:25;;;;;;;;;31.60;30.00;;;;;22.98;100.00;99257.69;6256216;27;97685;-67
2023/09/09 06:15:30;;;;;;;;;36.00;32.00;;;;;23.19;100.00;99261.81;6256883;27;96681;-67
2023/09/09 06:18:33;;;;;;;;;30.20;29.20;;;;;23.45;100.00;99267.84;6265844;27;97637;-67
2023/09/09 06:21:36;;;;;;;;;33.00;29.00;;;;;23.61;100.00;99277.50;6280943;27;97090;-67
2023/09/09 06:24:40;;;;;;;;;31.50;29.50;;;;;23.71;100.00;99284.78;6245341;27;98498;-66
2023/09/09 06:27:44;;;;;;;;;34.50;31.00;;;;;23.85;100.00;99282.91;6246058;27;98921;-67
2023/09/09 06:30:48;;;;;;;;;33.00;28.40;;;;;24.15;100.00;99289.88;6263819;27;97567;-66
2023/09/09 06:33:52;;;;;;;;;36.00;32.60;;;;;24.48;100.00;99293.47;6260626;27;97462;-67
2023/09/09 06:36:55;;;;;;;;;38.20;32.80;;;;;24.73;100.00;99298.50;6286242;27;97101;-67
2023/09/09 06:39:59;;;;;;;;;41.40;33.40;;;;;25.05;100.00;99299.59;6281853;27;96345;-67
2023/09/09 06:43:02;;;;;;;;;36.00;30.50;;;;;25.33;100.00;99303.97;6287170;27;97544;-67
2023/09/09 06:46:07;;;;;;;;;34.00;30.00;;;;;25.62;100.00;99306.41;6259994;27;97129;-67
2023/09/09 06:49:10;;;;;;;;;33.33;30.33;;;;;25.88;100.00;99310.22;6266528;27;96675;-67
2023/09/09 06:52:13;;;;;;;;;34.40;31.80;;;;;26.14;100.00;99316.78;6286002;27;96526;-67
2023/09/09 06:55:16;;;;;;;;;39.20;33.00;;;;;26.40;100.00;99325.28;6261992;27;98441;-67
2023/09/09 06:58:20;;;;;;;;;34.00;32.00;;;;;26.56;100.00;99326.53;6260640;27;98603;-66
2023/09/09 07:01:24;;;;;;;;;38.00;32.00;;;;;26.69;100.00;99325.63;6275549;27;97025;-66
2023/09/09 07:04:28;;;;;;;;;43.25;35.00;;;;;26.92;100.00;99323.66;6261266;27;97595;-66
2023/09/09 07:07:31;;;;;;;;;36.00;32.00;;;;;27.19;100.00;99324.56;6275667;27;97498;-67
2023/09/09 07:10:50;;;;;;;;;44.25;35.00;;;;;27.45;100.00;99317.97;6285601;27;96527;-67
2023/09/09 07:13:54;;;;;;;;;39.50;33.00;;;;;27.75;100.00;99321.81;6275517;27;96545;-67
2023/09/09 07:16:58;;;;;;;;;41.00;34.50;;;;;28.07;100.00;99330.78;6276793;27;96648;-67
2023/09/09 07:20:01;;;;;;;;;45.00;36.00;;;;;28.36;100.00;99323.44;6258923;27;98697;-67
2023/09/09 07:23:05;;;;;;;;;44.50;36.00;;;;;28.44;100.00;99330.16;6262971;27;97246;-67
2023/09/09 07:26:08;;;;;;;;;39.00;33.75;;;;;28.33;100.00;99326.91;6236258;27;97169;-67
2023/09/09 07:29:11;;;;;;;;;39.25;33.00;;;;;28.36;100.00;99331.78;6268271;27;96752;-67
2023/09/09 07:32:15;;;;;;;;;34.20;30.00;;;;;28.55;100.00;99327.81;6267660;27;97244;-67
2023/09/09 07:35:19;;;;;;;;;40.20;32.40;;;;;28.68;100.00;99330.41;6264194;27;97249;-67
2023/09/09 07:38:22;;;;;;;;;35.60;30.80;;;;;29.04;100.00;99327.22;6245190;27;96819;-67
2023/09/09 07:41:25;;;;;;;;;35.00;30.60;;;;;29.46;100.00;99330.16;6284545;27;97040;-67
2023/09/09 07:44:29;;;;;;;;;34.33;31.00;;;;;29.74;100.00;99331.28;6259575;27;96787;-67
2023/09/09 07:47:33;;;;;;;;;37.40;31.00;;;;;29.94;100.00;99333.28;6246909;27;96380;-67
2023/09/09 07:50:36;;;;;;;;;32.20;30.00;;;;;30.25;100.00;99332.84;6274840;27;96274;-67
2023/09/09 07:53:40;;;;;;;;;27.00;26.00;;;;;30.47;100.00;99334.47;6262909;27;96965;-67
2023/09/09 07:56:45;;;;;;;;;30.80;26.80;;;;;30.71;100.00;99326.22;6271678;27;96708;-67
2023/09/09 07:59:48;;;;;;;;;25.00;23.60;;;;;31.08;100.00;99332.69;6264752;27;96346;-67
2023/09/09 08:02:53;;;;;;;;;28.20;26.00;;;;;31.37;100.00;99332.44;6247159;27;97081;-68
2023/09/09 08:06:01;;;;;;;;;25.50;23.50;;;;;31.80;100.00;99331.88;6273955;27;97223;-67
2023/09/09 08:09:04;;;;;;;;;22.00;22.00;;;;;32.11;100.00;99327.63;6271745;27;96878;-67
2023/09/09 08:12:08;;;;;;;;;22.00;21.00;;;;;32.50;100.00;99321.16;6277131;27;96730;-67
2023/09/09 08:15:11;;;;;;;;;24.60;22.60;;;;;32.72;100.00;99321.78;6280708;27;97217;-68
2023/09/09 08:18:21;;;;;;;;;22.40;20.40;;;;;33.06;100.00;99321.91;6281702;27;96719;-68
2023/09/09 08:21:24;;;;;;;;;23.00;21.60;;;;;33.22;100.00;99321.13;6279029;27;96476;-68
2023/09/09 08:24:28;;;;;;;;;20.60;19.00;;;;;33.51;100.00;99327.06;6265975;27;97513;-68
2023/09/09 08:27:31;;;;;;;;;19.00;18.00;;;;;33.37;100.00;99329.50;6272435;27;97585;-68
2023/09/09 08:30:34;;;;;;;;;20.25;18.25;;;;;33.66;100.00;99330.19;6265420;27;99790;-68
2023/09/09 08:33:39;;;;;;;;;22.00;20.00;;;;;33.90;100.00;99335.56;6259705;27;97987;-67
2023/09/09 08:36:42;;;;;;;;;20.00;19.80;;;;;34.18;100.00;99338.16;6265640;27;97293;-68
2023/09/09 08:39:46;;;;;;;;;17.00;16.00;;;;;34.31;100.00;99326.44;6278456;27;96585;-67
2023/09/09 08:43:03;;;;;;;;;21.00;18.40;;;;;34.19;100.00;99323.81;6283401;27;97985;-68
2023/09/09 08:46:12;;;;;;;;;17.00;16.40;;;;;34.46;100.00;99324.75;6243378;27;97416;-68
2023/09/09 08:49:21;;;;;;;;;18.80;17.00;;;;;34.54;100.00;99329.31;6241942;27;99280;-68
2023/09/09 08:52:27;;;;;;;;;18.25;17.00;;;;;34.78;100.00;99317.00;6289832;27;96673;-68
2023/09/09 08:55:31;;;;;;;;;17.00;17.00;;;;;35.14;100.00;99319.22;6266318;27;97539;-68
2023/09/09 08:58:34;;;;;;;;;19.00;18.00;;;;;35.50;100.00;99319.84;6263417;27;97148;-68
2023/09/09 09:01:39;;;;;;;;;18.00;16.00;;;;;35.64;99.07;99317.25;6262239;27;96685;-68
2023/09/09 09:04:45;;;;;;;;;17.50;17.50;;;;;36.09;100.00;99323.91;6261624;27;97224;-68
2023/09/09 09:07:48;;;;;;;;;17.20;16.00;;;;;36.35;99.88;99313.44;6274115;27;97151;-68
2023/09/09 09:10:51;;;;;;;;;17.60;16.00;;;;;36.59;94.40;99314.09;6260086;27;97451;-68
2023/09/09 09:13:55;;;;;;;;;21.00;19.00;;;;;36.88;96.05;99314.03;6275532;27;98696;-68
2023/09/09 09:16:58;;;;;;;;;20.00;17.00;;;;;37.12;94.73;99314.69;6282891;27;96965;-68
2023/09/09 09:20:07;;;;;;;;;22.20;18.80;;;;;37.41;91.34;99302.44;6274205;27;96422;-68
2023/09/09 09:23:12;;;;;;;;;19.40;17.00;;;;;37.69;90.19;99305.47;6229530;27;96529;-68
2023/09/09 09:26:25;;;;;;;;;16.00;16.00;;;;;37.94;87.71;99299.97;6275483;27;97461;-68
2023/09/09 09:29:39;;;;;;;;;20.00;17.00;;;;;37.76;86.92;99299.09;6267646;27;97546;-68
2023/09/09 09:32:42;;;;;;;;;17.00;16.25;;;;;37.53;92.57;99295.72;6286454;27;97711;-68
2023/09/09 09:35:47;;;;;;;;;20.00;19.40;;;;;37.63;90.31;99290.16;6289636;27;96775;-68
2023/09/09 09:38:51;;;;;;;;;54.80;38.60;;;;;37.92;89.33;99284.72;6270866;27;97177;-68
2023/09/09 09:41:54;;;;;;;;;16.00;14.33;;;;;38.19;86.45;99282.41;6271033;27;98647;-68
2023/09/09 09:45:08;;;;;;;;;13.60;13.00;;;;;38.26;90.01;99279.66;6268659;27;96908;-68
2023/09/09 09:48:11;;;;;;;;;15.50;15.00;;;;;38.07;86.28;99280.78;6263028;27;96702;-68
2023/09/09 09:51:17;;;;;;;;;16.20;15.00;;;;;38.19;88.50;99277.59;6265453;27;97364;-68
2023/09/09 09:54:20;;;;;;;;;15.20;13.40;;;;;38.26;86.28;99274.00;6274104;27;97585;-68
2023/09/09 09:57:25;;;;;;;;;14.00;14.00;;;;;38.35;86.61;99283.69;6277593;27;97466;-68
2023/09/09 10:00:29;;;;;;;;;16.80;15.00;;;;;38.25;86.23;99276.00;6264970;27;98300;-68
2023/09/09 10:03:42;;;;;;;;;14.60;14.00;;;;;38.35;85.96;99278.06;6260108;27;99052;-68
2023/09/09 10:06:50;;;;;;;;;18.00;16.00;;;;;38.34;85.46;99273.63;6263752;27;97442;-68
2023/09/09 10:10:00;;;;;;;;;15.20;14.00;;;;;38.39;83.75;99276.06;6251154;27;96653;-68
2023/09/09 10:13:08;;;;;;;;;16.00;15.00;;;;;38.34;84.50;99275.63;6263562;27;96878;-68
2023/09/09 10:16:13;;;;;;;;;15.50;14.50;;;;;38.50;85.31;99284.56;6255463;27;97451;-68
2023/09/09 10:19:17;;;;;;;;;15.60;13.60;;;;;38.60;84.36;99274.53;6261524;27;96933;-67
2023/09/09 10:22:23;;;;;;;;;13.20;11.60;;;;;38.64;80.80;99273.31;6263540;27;96694;-68
2023/09/09 10:25:27;;;;;;;;;15.50;14.00;;;;;38.46;80.87;99266.84;6239344;27;97094;-68
2023/09/09 10:28:32;;;;;;;;;16.80;14.40;;;;;37.09;83.53;99270.50;6256031;27;98529;-67
2023/09/09 10:31:36;;;;;;;;;17.00;15.00;;;;;37.41;86.08;99260.25;6257180;27;98581;-68
2023/09/09 10:34:41;;;;;;;;;16.60;15.00;;;;;37.79;80.31;99266.53;6268958;27;96623;-68
2023/09/09 10:37:47;;;;;;;;;17.00;13.60;;;;;37.64;83.40;99265.66;6268249;27;97134;-68
2023/09/09 10:40:51;;;;;;;;;13.00;12.00;;;;;37.57;78.85;99263.63;6260694;27;98433;-68
2023/09/09 10:43:54;;;;;;;;;15.60;13.60;;;;;37.76;79.58;99256.06;6265227;27;96408;-68
2023/09/09 10:46:58;;;;;;;;;16.40;13.60;;;;;37.82;79.73;99249.69;6275302;27;97985;-68
2023/09/09 10:50:05;;;;;;;;;15.00;14.40;;;;;37.72;79.76;99247.63;6252156;27;97856;-68
2023/09/09 10:53:19;;;;;;;;;14.00;13.00;;;;;37.86;81.48;99256.13;6275440;27;97478;-68
2023/09/09 10:56:24;;;;;;;;;10.60;10.00;;;;;38.37;79.64;99252.28;6251012;27;96632;-68
2023/09/09 10:59:29;;;;;;;;;9.00;9.00;;;;;38.17;72.04;99252.63;6249185;27;96694;-68
2023/09/09 11:02:46;;;;;;;;;12.50;11.00;;;;;38.53;74.66;99242.31;6263730;27;97173;-68
2023/09/09 11:05:59;;;;;;;;;14.00;12.00;;;;;38.79;78.78;99240.31;6270307;27;96688;-67
2023/09/09 11:09:11;;;;;;;;;10.00;9.80;;;;;38.98;70.43;99249.22;6272264;27;97671;-68
2023/09/09 11:12:15;;;;;;;;;12.00;11.60;;;;;38.69;72.13;99249.56;6250772;27;99567;-68
2023/09/09 11:15:19;;;;;;;;;11.60;11.00;;;;;38.81;71.13;99249.97;6271182;27;97051;-68
2023/09/09 11:18:22;;;;;;;;;14.00;13.00;;;;;39.00;74.10;99243.97;6244074;27;98012;-68
2023/09/09 11:21:25;;;;;;;;;14.60;12.00;;;;;39.34;70.85;99243.56;6269065;27;96493;-68
2023/09/09 11:24:30;;;;;;;;;11.00;11.00;;;;;39.10;70.38;99233.88;6269438;27;97528;-68
2023/09/09 11:27:34;;;;;;;;;14.60;14.00;;;;;38.78;68.94;99225.41;6269813;27;97488;-68
2023/09/09 11:30:41;;;;;;;;;12.00;12.00;;;;;38.75;71.01;99229.06;6260876;27;97189;-68
2023/09/09 11:33:45;;;;;;;;;10.00;10.00;;;;;38.95;71.45;99224.63;6261128;27;97533;-68
2023/09/09 11:36:48;;;;;;;;;12.20;12.20;;;;;38.75;68.31;99228.25;6226890;27;98670;-68
2023/09/09 11:39:53;;;;;;;;;13.00;13.00;;;;;38.64;70.97;99224.59;6261589;27;96573;-69
2023/09/09 11:42:57;;;;;;;;;12.00;11.00;;;;;38.22;74.91;99220.47;6260151;27;97803;-69
2023/09/09 11:46:00;;;;;;;;;14.00;12.00;;;;;38.30;78.37;99215.69;6261783;27;96689;-68
2023/09/09 11:49:04;;;;;;;;;12.75;11.75;;;;;38.51;71.55;99219.34;6253995;27;96664;-68
2023/09/09 11:52:08;;;;;;;;;13.00;12.40;;;;;38.50;71.14;99225.41;6249141;27;98834;-68
2023/09/09 11:55:16;;;;;;;;;14.00;13.00;;;;;38.37;74.61;99210.84;6277978;27;96724;-68
2023/09/09 11:58:20;;;;;;;;;12.00;10.75;;;;;38.38;74.22;99211.66;6235979;27;97127;-68
2023/09/09 12:01:24;;;;;;;;;13.25;13.00;;;;;38.01;73.02;99209.97;6265313;27;96530;-68
2023/09/09 12:04:27;;;;;;;;;13.00;13.00;;;;;38.07;77.08;99204.78;6278611;27;97621;-68
2023/09/09 12:07:33;;;;;;;;;11.00;11.00;;;;;37.57;77.89;99192.47;6274680;27;96486;-68
2023/09/09 12:10:39;;;;;;;;;13.75;13.00;;;;;37.84;80.16;99198.59;6277842;27;96661;-68
2023/09/09 12:13:42;;;;;;;;;13.40;13.00;;;;;38.03;77.56;99199.09;6275512;27;96688;-68
2023/09/09 12:16:46;;;;;;;;;14.00;12.40;;;;;38.03;77.14;99193.47;6261983;27;97256;-68
2023/09/09 12:19:55;;;;;;;;;12.60;12.00;;;;;38.03;77.40;99193.47;6270501;27;96567;-68
2023/09/09 12:22:58;;;;;;;;;12.00;11.00;;;;;37.98;78.24;99193.03;6258347;27;99698;-67
2023/09/09 12:26:13;;;;;;;;;13.60;13.00;;;;;38.04;78.59;99185.84;6252906;27;97871;-68
2023/09/09 12:29:16;;;;;;;;;11.60;11.60;;;;;38.14;77.13;99185.88;6252591;27;97841;-68
2023/09/09 12:32:20;;;;;;;;;12.00;11.33;;;;;38.02;77.32;99188.25;6284442;27;97093;-68
2023/09/09 12:35:23;;;;;;;;;12.40;11.00;;;;;37.89;79.70;99184.16;6264213;27;96663;-68
2023/09/09 12:38:26;;;;;;;;;13.80;12.80;;;;;37.68;76.48;99184.91;6263913;27;97169;-68
2023/09/09 12:41:31;;;;;;;;;13.00;12.00;;;;;37.25;77.47;99184.63;6290029;27;96517;-68
2023/09/09 12:44:48;;;;;;;;;13.60;12.80;;;;;36.68;78.86;99182.59;6277483;27;97084;-68
2023/09/09 12:47:52;;;;;;;;;13.40;12.40;;;;;36.58;79.40;99178.47;6266363;27;97372;-68
2023/09/09 12:50:56;;;;;;;;;13.00;12.60;;;;;36.43;81.25;99187.94;6276863;27;97447;-68
2023/09/09 12:54:00;;;;;;;;;13.00;12.00;;;;;36.30;81.92;99176.22;6246335;27;98038;-68
2023/09/09 12:57:06;;;;;;;;;13.00;13.00;;;;;36.31;82.17;99177.81;6278925;27;96497;-68
2023/09/09 13:00:11;;;;;;;;;15.00;14.00;;;;;36.26;83.21;99178.19;6244557;27;99110;-68
2023/09/09 13:03:15;;;;;;;;;13.00;11.00;;;;;36.23;86.99;99187.34;6263478;27;97283;-68
2023/09/09 13:06:18;;;;;;;;;13.40;13.40;;;;;36.36;86.59;99177.44;6272506;27;96636;-68
2023/09/09 13:09:22;;;;;;;;;14.75;13.75;;;;;36.54;85.50;99183.25;6274081;27;97872;-68
2023/09/09 13:12:27;;;;;;;;;13.25;13.25;;;;;36.57;84.82;99184.47;6271883;27;96717;-68
2023/09/09 13:15:30;;;;;;;;;13.00;12.75;;;;;36.58;86.58;99183.28;6271682;27;96624;-68
2023/09/09 13:18:33;;;;;;;;;13.75;12.75;;;;;36.52;86.63;99184.81;6268776;27;97093;-67
2023/09/09 13:21:37;;;;;;;;;14.00;13.60;;;;;36.02;84.94;99179.47;6256029;27;96630;-68
2023/09/09 13:24:40;;;;;;;;;17.00;17.00;;;;;35.76;86.92;99181.59;6257668;27;97155;-68
2023/09/09 13:27:45;;;;;;;;;16.00;13.00;;;;;35.40;89.83;99180.28;6272231;27;96986;-68
2023/09/09 13:30:48;;;;;;;;;15.67;15.33;;;;;35.40;91.32;99175.47;6255346;27;97507;-68
2023/09/09 13:33:51;;;;;;;;;13.20;12.60;;;;;35.48;91.50;99174.38;6280644;27;96597;-68
2023/09/09 13:36:55;;;;;;;;;13.80;12.00;;;;;35.62;89.10;99168.97;6249602;27;99622;-68
2023/09/09 13:39:58;;;;;;;;;14.20;13.80;;;;;35.45;87.67;99177.97;6279778;27;97022;-68
2023/09/09 13:43:03;;;;;;;;;14.00;13.40;;;;;35.24;91.28;99171.28;6277163;27;96600;-68
2023/09/09 13:46:07;;;;;;;;;13.60;13.00;;;;;35.27;91.58;99168.50;6267650;27;96269;-68
2023/09/09 13:49:10;;;;;;;;;14.40;13.40;;;;;35.26;93.27;99166.88;6273327;27;96680;-68
2023/09/09 13:52:13;;;;;;;;;14.00;13.00;;;;;35.39;93.96;99168.25;6242005;27;97419;-68
2023/09/09 13:55:17;;;;;;;;;12.00;11.00;;;;;34.96;89.77;99166.00;6274196;27;96903;-68
2023/09/09 13:58:21;;;;;;;;;12.80;11.80;;;;;34.81;92.07;99162.19;6261616;27;98880;-68
2023/09/09 14:01:25;;;;;;;;;15.00;14.00;;;;;34.89;90.37;99166.72;6253402;27;97160;-67